Time;durP1;ratioP1;P1;durP2;ratioP2;P2;SDS_P1;SDS_P2;PMS_P1;PMS_P2;Temp;Humidity;BMP_temperature;BMP_pressure;BME280_temperature;BME280_humidity;BME280_pressure;Samples;Min_cycle;Max_cycle;Signal;HPM_P1;HPM_P2
2022/03/20 00:00:25;;;;;;;18.80;9.35;;;;;;;;;;5092502;28;20016;-38
2022/03/20 00:02:51;;;;;;;17.92;9.18;;;;;;;;;;5092667;28;20035;-38
2022/03/20 00:05:17;;;;;;;20.42;8.32;;;;;;;;;;5092485;28;20012;-38
2022/03/20 00:07:44;;;;;;;18.65;10.85;;;;;;;;;;5092527;28;20039;-38
2022/03/20 00:10:10;;;;;;;15.32;9.38;;;;;;;;;;5092547;28;20020;-38
2022/03/20 00:12:36;;;;;;;17.55;8.48;;;;;;;;;;5092381;28;20039;-39
2022/03/20 00:15:03;;;;;;;18.02;8.88;;;;;;;;;;5092361;28;20016;-38
2022/03/20 00:17:29;;;;;;;20.33;8.63;;;;;;;;;;5092235;28;20080;-38
2022/03/20 00:19:54;;;;;;;20.20;9.95;;;;;;;;;;5092372;28;20012;-38
2022/03/20 00:22:20;;;;;;;19.65;8.25;;;;;;;;;;5091264;28;20370;-38
2022/03/20 00:24:47;;;;;;;17.90;9.20;;;;;;;;;;5092220;28;20462;-38
2022/03/20 00:27:13;;;;;;;17.13;9.68;;;;;;;;;;5092046;28;20024;-38
2022/03/20 00:29:39;;;;;;;23.55;10.05;;;;;;;;;;5091284;28;20103;-38
2022/03/20 00:32:06;;;;;;;19.35;10.35;;;;;;;;;;5092368;28;20112;-38
2022/03/20 00:34:32;;;;;;;20.20;9.63;;;;;;;;;;5092286;28;20404;-38
2022/03/20 00:36:58;;;;;;;27.58;9.68;;;;;;;;;;5091879;28;20111;-38
2022/03/20 00:39:23;;;;;;;16.33;9.70;;;;;;;;;;5091967;28;20099;-38
2022/03/20 00:41:49;;;;;;;16.02;7.70;;;;;;;;;;5091931;28;20103;-38
2022/03/20 00:44:14;;;;;;;18.33;10.18;;;;;;;;;;5091877;28;20020;-38
2022/03/20 00:46:40;;;;;;;21.70;9.57;;;;;;;;;;5091875;28;20067;-38
2022/03/20 00:49:05;;;;;;;17.95;10.13;;;;;;;;;;5090548;28;20036;-38
2022/03/20 00:51:31;;;;;;;15.55;8.32;;;;;;;;;;5091572;28;20048;-38
2022/03/20 00:53:57;;;;;;;20.55;9.00;;;;;;;;;;5091757;28;20035;-38
2022/03/20 00:56:23;;;;;;;22.48;8.73;;;;;;;;;;5091519;28;20028;-38
2022/03/20 00:58:48;;;;;;;17.67;9.38;;;;;;;;;;5090483;28;20100;-38
2022/03/20 01:01:14;;;;;;;28.35;10.98;;;;;;;;;;5091672;28;20382;-38
2022/03/20 01:03:41;;;;;;;23.25;10.70;;;;;;;;;;5091660;28;20024;-38
2022/03/20 01:06:07;;;;;;;16.50;8.52;;;;;;;;;;5091867;28;20373;-39
2022/03/20 01:08:34;;;;;;;17.45;8.93;;;;;;;;;;5091582;28;20023;-38
2022/03/20 01:11:00;;;;;;;17.40;9.45;;;;;;;;;;5091526;28;20035;-38
2022/03/20 01:13:26;;;;;;;23.85;11.18;;;;;;;;;;5091598;28;20031;-38
2022/03/20 01:15:51;;;;;;;20.58;9.30;;;;;;;;;;5091484;28;20081;-38
2022/03/20 01:18:17;;;;;;;18.65;9.55;;;;;;;;;;5091407;28;20016;-38
2022/03/20 01:20:43;;;;;;;21.90;9.80;;;;;;;;;;5091510;28;20024;-38
2022/03/20 01:23:08;;;;;;;17.23;8.75;;;;;;;;;;5091476;28;20020;-38
2022/03/20 01:25:34;;;;;;;18.45;9.18;;;;;;;;;;5089948;28;20401;-38
2022/03/20 01:27:59;;;;;;;20.58;9.80;;;;;;;;;;5091405;28;20028;-38
2022/03/20 01:30:25;;;;;;;20.17;8.57;;;;;;;;;;5091394;28;20028;-38
2022/03/20 01:32:51;;;;;;;22.40;10.75;;;;;;;;;;5091268;28;20017;-38
2022/03/20 01:35:16;;;;;;;15.90;8.52;;;;;;;;;;5091183;28;20032;-38
2022/03/20 01:37:41;;;;;;;19.50;9.43;;;;;;;;;;5091619;28;20055;-38
2022/03/20 01:40:07;;;;;;;20.77;8.15;;;;;;;;;;5091475;28;20059;-38
2022/03/20 01:42:33;;;;;;;23.50;10.70;;;;;;;;;;5094422;28;20051;-39
2022/03/20 01:44:58;;;;;;;19.30;9.98;;;;;;;;;;5095240;28;20028;-38
2022/03/20 01:47:24;;;;;;;18.30;7.90;;;;;;;;;;5095363;28;20081;-38
2022/03/20 01:49:49;;;;;;;22.52;10.93;;;;;;;;;;5095228;28;20028;-38
2022/03/20 01:52:15;;;;;;;23.23;11.48;;;;;;;;;;5094858;28;20067;-38
2022/03/20 01:54:42;;;;;;;15.20;6.25;;;;;;;;;;5095113;28;20059;-38
2022/03/20 01:57:09;;;;;;;17.08;9.52;;;;;;;;;;5095054;28;20025;-38
2022/03/20 01:59:35;;;;;;;17.83;9.43;;;;;;;;;;5095216;28;20143;-38
2022/03/20 02:02:02;;;;;;;14.82;8.23;;;;;;;;;;5094919;28;20533;-38
2022/03/20 02:04:28;;;;;;;14.00;8.77;;;;;;;;;;5095100;28;20377;-38
2022/03/20 02:06:54;;;;;;;16.35;9.25;;;;;;;;;;5094951;28;20020;-39
2022/03/20 02:09:19;;;;;;;19.25;9.63;;;;;;;;;;5094983;28;20024;-38
2022/03/20 02:11:47;;;;;;;18.30;9.57;;;;;;;;;;5094803;28;20032;-38
2022/03/20 02:14:13;;;;;;;18.27;10.25;;;;;;;;;;5094701;28;20452;-39
2022/03/20 02:16:39;;;;;;;20.20;9.65;;;;;;;;;;5094644;28;20107;-38
2022/03/20 02:19:09;;;;;;;20.52;8.90;;;;;;;;;;5094975;28;20358;-38
2022/03/20 02:21:35;;;;;;;20.27;9.75;;;;;;;;;;5094735;28;20032;-38
2022/03/20 02:24:01;;;;;;;22.02;9.27;;;;;;;;;;5094840;28;20106;-38
2022/03/20 02:26:30;;;;;;;18.63;11.25;;;;;;;;;;5094499;28;20012;-38
2022/03/20 02:28:56;;;;;;;18.52;9.93;;;;;;;;;;5094410;28;20394;-38
2022/03/20 02:31:21;;;;;;;17.42;9.18;;;;;;;;;;5094339;28;20016;-38
2022/03/20 02:33:47;;;;;;;19.80;8.65;;;;;;;;;;5094358;28;20043;-38
2022/03/20 02:36:13;;;;;;;19.35;9.13;;;;;;;;;;5094467;28;20024;-38
2022/03/20 02:38:39;;;;;;;16.95;8.60;;;;;;;;;;5094568;28;20028;-38
2022/03/20 02:41:14;;;;;;;17.08;9.48;;;;;;;;;;5094232;28;20381;-38
2022/03/20 02:43:50;;;;;;;19.67;9.80;;;;;;;;;;5092922;28;20117;-38
2022/03/20 02:46:16;;;;;;;16.83;8.27;;;;;;;;;;5093953;28;20114;-38
2022/03/20 02:48:45;;;;;;;16.83;9.07;;;;;;;;;;5094427;28;20024;-38
2022/03/20 02:51:11;;;;;;;17.98;10.32;;;;;;;;;;5094002;28;20051;-38
2022/03/20 02:53:36;;;;;;;18.45;9.55;;;;;;;;;;5092909;28;20040;-40
2022/03/20 02:56:02;;;;;;;22.42;9.32;;;;;;;;;;5093956;28;20496;-38
2022/03/20 02:58:27;;;;;;;16.08;9.07;;;;;;;;;;5094016;28;20021;-38
2022/03/20 03:00:55;;;;;;;16.98;9.00;;;;;;;;;;5093868;28;20123;-38
2022/03/20 03:03:22;;;;;;;17.73;8.20;;;;;;;;;;5093710;28;20020;-38
2022/03/20 03:05:48;;;;;;;19.27;10.25;;;;;;;;;;5093695;28;20035;-39
2022/03/20 03:10:59;;;;;;;16.63;8.98;;;;;;;;;;5093712;28;20493;-38
2022/03/20 03:13:29;;;;;;;24.73;9.30;;;;;;;;;;5093722;28;20120;-38
2022/03/20 03:15:56;;;;;;;16.15;9.10;;;;;;;;;;5093514;28;20090;-38
2022/03/20 03:18:22;;;;;;;18.75;9.52;;;;;;;;;;5093749;28;20411;-38
2022/03/20 03:20:48;;;;;;;18.40;9.73;;;;;;;;;;5093415;28;20527;-38
2022/03/20 03:23:14;;;;;;;21.88;9.80;;;;;;;;;;5092172;28;20028;-38
2022/03/20 03:25:40;;;;;;;15.45;8.30;;;;;;;;;;5093325;28;20477;-38
2022/03/20 03:28:06;;;;;;;17.10;8.52;;;;;;;;;;5093377;28;20027;-38
2022/03/20 03:30:32;;;;;;;18.38;9.50;;;;;;;;;;5093282;28;20024;-38
2022/03/20 03:32:57;;;;;;;18.00;9.13;;;;;;;;;;5093404;28;20050;-38
2022/03/20 03:38:10;;;;;;;17.38;8.65;;;;;;;;;;5093399;28;20035;-38
2022/03/20 03:40:37;;;;;;;17.33;10.13;;;;;;;;;;5092970;28;20054;-38
2022/03/20 03:43:03;;;;;;;18.92;9.57;;;;;;;;;;5093032;28;20063;-38
2022/03/20 03:45:29;;;;;;;16.38;8.85;;;;;;;;;;5092916;28;20040;-38
2022/03/20 03:47:55;;;;;;;14.38;7.28;;;;;;;;;;5092821;28;20081;-38
2022/03/20 03:50:21;;;;;;;18.88;9.25;;;;;;;;;;5092602;28;20019;-39
2022/03/20 03:52:46;;;;;;;19.25;9.52;;;;;;;;;;5093141;28;20040;-38
2022/03/20 03:55:13;;;;;;;21.70;9.43;;;;;;;;;;5092742;28;20024;-38
2022/03/20 03:57:42;;;;;;;21.73;9.80;;;;;;;;;;5093089;28;20028;-38
2022/03/20 04:00:08;;;;;;;17.95;9.60;;;;;;;;;;5092721;28;20390;-38
2022/03/20 04:02:44;;;;;;;16.45;8.10;;;;;;;;;;5093091;28;20111;-38
2022/03/20 04:05:10;;;;;;;14.05;8.32;;;;;;;;;;5092574;28;20606;-38
2022/03/20 04:07:35;;;;;;;18.90;9.43;;;;;;;;;;5092533;28;20355;-38
2022/03/20 04:10:07;;;;;;;15.55;7.53;;;;;;;;;;5092538;28;20395;-38
2022/03/20 04:12:36;;;;;;;19.30;10.40;;;;;;;;;;5092339;28;20024;-38
2022/03/20 04:15:03;;;;;;;18.67;9.13;;;;;;;;;;5092735;28;20358;-38
2022/03/20 04:17:29;;;;;;;17.55;8.60;;;;;;;;;;5092493;28;20021;-38
2022/03/20 04:19:55;;;;;;;22.30;9.85;;;;;;;;;;5092393;28;20028;-38
2022/03/20 04:22:21;;;;;;;25.58;10.68;;;;;;;;;;5092505;28;20020;-38
2022/03/20 04:24:47;;;;;;;13.05;7.28;;;;;;;;;;5092281;28;20018;-39
2022/03/20 04:27:13;;;;;;;19.17;9.73;;;;;;;;;;5092232;28;20458;-39
2022/03/20 04:29:39;;;;;;;14.75;8.70;;;;;;;;;;5092419;28;20069;-38
2022/03/20 04:32:06;;;;;;;18.77;9.27;;;;;;;;;;5092136;28;20482;-38
2022/03/20 04:34:31;;;;;;;19.38;8.07;;;;;;;;;;5092315;28;20094;-38
2022/03/20 04:36:56;;;;;;;13.27;9.18;;;;;;;;;;5092314;28;20095;-38
2022/03/20 04:39:23;;;;;;;22.27;9.70;;;;;;;;;;5091969;28;20443;-38
2022/03/20 04:41:49;;;;;;;18.33;9.15;;;;;;;;;;5092022;28;20031;-38
2022/03/20 04:44:14;;;;;;;18.65;9.27;;;;;;;;;;5092095;28;20416;-38
2022/03/20 04:46:40;;;;;;;15.77;9.00;;;;;;;;;;5090637;28;20038;-38
2022/03/20 05:00:03;;;;;;;16.30;9.05;;;;;;;;;;5091751;28;20059;-38
2022/03/20 05:02:29;;;;;;;18.90;8.55;;;;;;;;;;5091496;28;20367;-38
2022/03/20 05:04:55;;;;;;;17.58;8.98;;;;;;;;;;5091682;28;20038;-38
2022/03/20 05:07:20;;;;;;;24.60;8.95;;;;;;;;;;5091497;28;20012;-38
2022/03/20 05:15:18;;;;;;;15.25;9.02;;;;;;;;;;5080769;28;20040;-38
2022/03/20 05:17:43;;;;;;;21.38;10.77;;;;;;;;;;5091175;28;20355;-38
2022/03/20 05:20:10;;;;;;;20.35;9.15;;;;;;;;;;5091483;28;20028;-38
2022/03/20 05:22:37;;;;;;;18.90;10.15;;;;;;;;;;5091629;28;20028;-37
2022/03/20 05:25:06;;;;;;;23.05;10.55;;;;;;;;;;5091439;28;20508;-37
2022/03/20 05:27:31;;;;;;;15.43;8.25;;;;;;;;;;5091251;28;20024;-38
2022/03/20 05:29:57;;;;;;;15.27;8.93;;;;;;;;;;5091637;28;20708;-38
2022/03/20 05:32:23;;;;;;;21.85;9.88;;;;;;;;;;5091491;28;20649;-38
2022/03/20 05:34:48;;;;;;;19.02;9.35;;;;;;;;;;5091221;28;20559;-38
2022/03/20 05:37:14;;;;;;;16.73;8.43;;;;;;;;;;5091373;28;20016;-38
2022/03/20 05:39:39;;;;;;;19.55;10.73;;;;;;;;;;5091302;28;20036;-38
2022/03/20 05:42:05;;;;;;;18.20;9.85;;;;;;;;;;5091254;28;20100;-38
2022/03/20 05:44:32;;;;;;;18.00;8.45;;;;;;;;;;5091227;28;20035;-37
2022/03/20 05:46:59;;;;;;;15.80;9.30;;;;;;;;;;5091445;28;20064;-38
2022/03/20 05:49:25;;;;;;;22.05;10.32;;;;;;;;;;5091216;28;20358;-38
2022/03/20 05:51:52;;;;;;;16.80;9.85;;;;;;;;;;5091054;28;20486;-38
2022/03/20 05:54:17;;;;;;;19.70;9.88;;;;;;;;;;5090106;28;20036;-38
2022/03/20 05:59:28;;;;;;;16.45;8.32;;;;;;;;;;5091136;28;20028;-38
2022/03/20 06:01:54;;;;;;;25.52;9.23;;;;;;;;;;5091242;28;20073;-38
2022/03/20 06:04:20;;;;;;;16.70;8.90;;;;;;;;;;5091191;28;20036;-38
2022/03/20 06:06:45;;;;;;;19.77;9.10;;;;;;;;;;5090986;28;20028;-39
2022/03/20 06:09:11;;;;;;;13.23;6.80;;;;;;;;;;5091099;28;20039;-38
2022/03/20 06:11:37;;;;;;;17.67;9.20;;;;;;;;;;5090969;28;20405;-39
2022/03/20 06:14:06;;;;;;;19.52;9.68;;;;;;;;;;5091234;28;20131;-39
2022/03/20 06:16:32;;;;;;;14.02;8.75;;;;;;;;;;5090736;28;20079;-39
2022/03/20 06:19:01;;;;;;;16.67;9.07;;;;;;;;;;5091018;28;20047;-38
2022/03/20 06:21:27;;;;;;;15.00;9.05;;;;;;;;;;5090812;28;20099;-38
2022/03/20 06:23:54;;;;;;;16.10;8.50;;;;;;;;;;5089634;28;20445;-38
2022/03/20 06:26:23;;;;;;;22.25;9.38;;;;;;;;;;5090821;28;20043;-38
2022/03/20 06:28:49;;;;;;;14.98;7.30;;;;;;;;;;5092668;28;20109;-38
2022/03/20 06:31:15;;;;;;;15.82;8.43;;;;;;;;;;5094795;28;20454;-38
2022/03/20 06:33:43;;;;;;;14.65;7.95;;;;;;;;;;5094388;28;20457;-38
2022/03/20 06:36:09;;;;;;;17.85;8.55;;;;;;;;;;5094373;28;20141;-38
2022/03/20 06:38:36;;;;;;;16.17;9.32;;;;;;;;;;5094556;28;20031;-39
2022/03/20 06:41:05;;;;;;;19.25;8.27;;;;;;;;;;5094389;28;20016;-38
2022/03/20 06:43:30;;;;;;;15.32;8.82;;;;;;;;;;5094464;28;20024;-38
2022/03/20 06:45:56;;;;;;;18.02;8.48;;;;;;;;;;5094013;28;20541;-38
2022/03/20 06:48:24;;;;;;;25.27;10.50;;;;;;;;;;5094368;28;20039;-38
2022/03/20 06:50:50;;;;;;;21.02;11.43;;;;;;;;;;5093953;28;20063;-38
2022/03/20 06:53:18;;;;;;;18.83;8.93;;;;;;;;;;5093915;28;20036;-38
2022/03/20 06:55:45;;;;;;;15.60;8.98;;;;;;;;;;5094057;28;20088;-38
2022/03/20 06:58:11;;;;;;;15.00;8.80;;;;;;;;;;5093977;28;20043;-38
2022/03/20 07:00:37;;;;;;;22.42;10.23;;;;;;;;;;5093691;28;20028;-38
2022/03/20 07:03:06;;;;;;;16.92;9.77;;;;;;;;;;5093908;28;20032;-38
2022/03/20 07:05:33;;;;;;;17.55;8.45;;;;;;;;;;5094011;28;20024;-38
2022/03/20 07:07:59;;;;;;;14.88;7.93;;;;;;;;;;5093702;28;20039;-38
2022/03/20 07:10:25;;;;;;;14.73;7.70;;;;;;;;;;5093667;28;20626;-38
2022/03/20 07:13:48;;;;;;;11.95;7.13;;;;;;;;;;5093641;28;20103;-38
2022/03/20 07:15:40;;;;;;;15.25;7.00;;;;;;;;;;5093469;28;20431;-38
2022/03/20 07:18:06;;;;;;;19.20;9.00;;;;;;;;;;5092443;28;20027;-38
2022/03/20 07:20:35;;;;;;;15.15;7.90;;;;;;;;;;5092106;28;20028;-38
2022/03/20 07:23:01;;;;;;;16.27;8.75;;;;;;;;;;5093487;28;20020;-38
2022/03/20 07:30:58;;;;;;;16.58;8.55;;;;;;;;;;5093370;28;20048;-38
2022/03/20 07:33:25;;;;;;;12.73;6.40;;;;;;;;;;5093153;28;20074;-38
2022/03/20 07:35:53;;;;;;;18.17;9.00;;;;;;;;;;5091735;28;20028;-38
2022/03/20 07:38:19;;;;;;;17.30;8.07;;;;;;;;;;5093150;28;20100;-38
2022/03/20 07:40:46;;;;;;;12.18;6.38;;;;;;;;;;5091551;28;20024;-38
2022/03/20 07:43:12;;;;;;;11.82;5.95;;;;;;;;;;5093044;28;20034;-38
2022/03/20 07:45:37;;;;;;;15.88;7.05;;;;;;;;;;5093249;28;20024;-38
2022/03/20 07:48:04;;;;;;;13.23;6.03;;;;;;;;;;5093180;28;20020;-38
2022/03/20 07:50:30;;;;;;;15.63;6.28;;;;;;;;;;5092714;28;20115;-38
2022/03/20 07:53:00;;;;;;;14.38;8.25;;;;;;;;;;5092928;28;20385;-38
2022/03/20 07:55:28;;;;;;;10.25;6.45;;;;;;;;;;5092753;28;20042;-38
2022/03/20 07:57:54;;;;;;;15.10;5.90;;;;;;;;;;5092728;28;20020;-38
2022/03/20 08:00:21;;;;;;;10.65;6.75;;;;;;;;;;5092949;28;20062;-38
2022/03/20 08:02:48;;;;;;;15.82;6.75;;;;;;;;;;5092708;28;20043;-38
2022/03/20 08:05:15;;;;;;;14.93;7.03;;;;;;;;;;5092509;28;20024;-38
2022/03/20 08:07:44;;;;;;;15.90;7.05;;;;;;;;;;5092707;28;20503;-38
2022/03/20 08:10:11;;;;;;;13.35;6.43;;;;;;;;;;5092539;28;20111;-38
2022/03/20 08:12:37;;;;;;;11.70;5.50;;;;;;;;;;5092317;28;20027;-38
2022/03/20 08:15:04;;;;;;;9.90;5.47;;;;;;;;;;5092397;28;20039;-38
2022/03/20 08:17:30;;;;;;;14.52;7.75;;;;;;;;;;5092588;28;20027;-37
2022/03/20 08:19:58;;;;;;;4.97;2.88;;;;;;;;;;5092709;28;20028;-38
2022/03/20 08:22:25;;;;;;;10.82;6.03;;;;;;;;;;5092579;28;20359;-38
2022/03/20 08:24:51;;;;;;;18.42;7.32;;;;;;;;;;5092163;28;20028;-38
2022/03/20 08:27:26;;;;;;;11.15;6.18;;;;;;;;;;5092433;28;20016;-38
2022/03/20 08:29:53;;;;;;;10.40;4.88;;;;;;;;;;5092271;28;20031;-38
2022/03/20 08:32:21;;;;;;;15.50;6.65;;;;;;;;;;5092113;28;20020;-38
2022/03/20 08:34:48;;;;;;;12.60;5.68;;;;;;;;;;5092077;28;20044;-38
2022/03/20 08:37:14;;;;;;;8.93;5.45;;;;;;;;;;5092584;28;20024;-38
2022/03/20 08:39:40;;;;;;;9.98;5.38;;;;;;;;;;5091889;28;20050;-38
2022/03/20 08:42:07;;;;;;;14.38;7.00;;;;;;;;;;5092106;28;20466;-38
2022/03/20 08:44:32;;;;;;;9.18;5.32;;;;;;;;;;5091869;28;20776;-38
2022/03/20 08:46:58;;;;;;;7.93;5.00;;;;;;;;;;5091862;28;20035;-38
2022/03/20 08:49:26;;;;;;;10.27;3.90;;;;;;;;;;5090578;28;20051;-38
2022/03/20 08:51:57;;;;;;;12.77;5.05;;;;;;;;;;5091093;28;20054;-38
2022/03/20 08:54:23;;;;;;;10.55;5.55;;;;;;;;;;5091550;28;20040;-38
2022/03/20 08:56:50;;;;;;;7.68;5.03;;;;;;;;;;5091809;28;20099;-38
2022/03/20 08:59:16;;;;;;;12.43;6.07;;;;;;;;;;5092037;28;20059;-37
2022/03/20 09:01:42;;;;;;;10.20;5.22;;;;;;;;;;5091632;28;20043;-39
2022/03/20 09:04:10;;;;;;;15.80;6.68;;;;;;;;;;5091725;28;20031;-38
2022/03/20 09:06:43;;;;;;;10.20;5.05;;;;;;;;;;5090275;28;20525;-39
2022/03/20 09:09:10;;;;;;;9.82;5.75;;;;;;;;;;5091847;28;20105;-38
2022/03/20 09:11:36;;;;;;;11.57;5.80;;;;;;;;;;5091531;28;20434;-38
2022/03/20 09:14:06;;;;;;;9.05;4.85;;;;;;;;;;5091721;28;20135;-38
2022/03/20 09:19:17;;;;;;;10.55;5.03;;;;;;;;;;5091576;28;20036;-38
2022/03/20 09:21:43;;;;;;;9.45;5.18;;;;;;;;;;5091364;28;20024;-38
2022/03/20 09:24:08;;;;;;;12.15;5.28;;;;;;;;;;5091476;28;20066;-38
2022/03/20 09:26:37;;;;;;;10.73;5.97;;;;;;;;;;5091371;28;20643;-40
2022/03/20 09:29:04;;;;;;;11.23;6.43;;;;;;;;;;5091634;28;20032;-39
2022/03/20 09:31:34;;;;;;;6.47;3.80;;;;;;;;;;5091193;28;20019;-38
2022/03/20 09:34:01;;;;;;;11.23;4.78;;;;;;;;;;5091265;28;20040;-38
2022/03/20 09:36:27;;;;;;;10.48;5.47;;;;;;;;;;5091239;28;20028;-38
2022/03/20 09:38:53;;;;;;;8.07;4.97;;;;;;;;;;5091333;28;20038;-38
2022/03/20 09:41:21;;;;;;;7.47;4.03;;;;;;;;;;5091382;28;20020;-38
2022/03/20 09:43:47;;;;;;;9.73;5.80;;;;;;;;;;5091256;28;20071;-38
2022/03/20 09:46:16;;;;;;;17.05;4.95;;;;;;;;;;5091281;28;20478;-38
2022/03/20 09:48:43;;;;;;;7.65;4.30;;;;;;;;;;5091157;28;20032;-38
2022/03/20 09:51:09;;;;;;;11.27;4.85;;;;;;;;;;5090936;28;20470;-38
2022/03/20 09:53:36;;;;;;;9.80;4.55;;;;;;;;;;5091328;28;20093;-38
2022/03/20 09:56:09;;;;;;;14.82;5.57;;;;;;;;;;5089793;28;20024;-38
2022/03/20 09:58:34;;;;;;;12.18;5.50;;;;;;;;;;5091098;28;20123;-38
2022/03/20 10:01:02;;;;;;;8.32;4.32;;;;;;;;;;5091418;28;20114;-38
2022/03/20 10:03:28;;;;;;;13.82;5.80;;;;;;;;;;5094257;28;20078;-38
2022/03/20 10:06:16;;;;;;;8.88;5.35;;;;;;;;;;5095022;28;20020;-38
2022/03/20 10:09:03;;;;;;;7.55;5.03;;;;;;;;;;5094813;28;20032;-38
2022/03/20 10:11:30;;;;;;;9.30;4.53;;;;;;;;;;5094786;28;20032;-38
2022/03/20 10:14:05;;;;;;;7.90;4.70;;;;;;;;;;5076707;28;20032;-38
2022/03/20 10:16:31;;;;;;;4.85;3.33;;;;;;;;;;5094502;28;20027;-38
2022/03/20 10:18:57;;;;;;;8.27;4.85;;;;;;;;;;5094693;28;20081;-38
2022/03/20 10:21:40;;;;;;;3.22;2.53;;;;;;;;;;5094682;28;20036;-38
2022/03/20 10:24:14;;;;;;;5.03;3.30;;;;;;;;;;5094647;28;20028;-38
2022/03/20 10:26:39;;;;;;;12.82;5.72;;;;;;;;;;5094419;28;20492;-38
2022/03/20 10:29:13;;;;;;;9.38;5.13;;;;;;;;;;5094647;28;20016;-38
2022/03/20 10:31:46;;;;;;;10.30;4.10;;;;;;;;;;5094451;28;20115;-38
2022/03/20 10:34:12;;;;;;;6.60;4.43;;;;;;;;;;5094389;28;20036;-38
2022/03/20 10:36:37;;;;;;;10.77;4.60;;;;;;;;;;5094267;28;20099;-38
2022/03/20 10:39:08;;;;;;;7.75;4.75;;;;;;;;;;5094506;28;20020;-38
2022/03/20 10:41:34;;;;;;;8.13;4.78;;;;;;;;;;5094147;28;20032;-38
2022/03/20 10:44:00;;;;;;;8.95;5.47;;;;;;;;;;5094223;28;20043;-38
2022/03/20 10:46:30;;;;;;;6.30;3.90;;;;;;;;;;5092809;28;20039;-38
2022/03/20 10:48:59;;;;;;;8.25;4.97;;;;;;;;;;5094166;28;20545;-38
2022/03/20 10:51:37;;;;;;;12.35;5.18;;;;;;;;;;5094019;28;20051;-38
2022/03/20 10:54:07;;;;;;;7.38;4.30;;;;;;;;;;5094212;28;20044;-38
2022/03/20 10:56:33;;;;;;;7.68;3.60;;;;;;;;;;5092645;28;20024;-38
2022/03/20 10:58:58;;;;;;;9.00;4.68;;;;;;;;;;5094090;28;20032;-38
2022/03/20 11:01:35;;;;;;;11.02;5.05;;;;;;;;;;5094053;28;20016;-38
2022/03/20 11:04:01;;;;;;;10.10;5.00;;;;;;;;;;5094102;28;20043;-38
2022/03/20 11:06:26;;;;;;;10.40;4.88;;;;;;;;;;5093717;28;20024;-38
2022/03/20 11:08:52;;;;;;;9.90;5.68;;;;;;;;;;5092451;28;20039;-38
2022/03/20 11:11:19;;;;;;;9.40;5.30;;;;;;;;;;5093755;28;20016;-38
2022/03/20 11:13:47;;;;;;;6.43;3.72;;;;;;;;;;5093063;28;20040;-38
2022/03/20 11:16:15;;;;;;;12.25;4.63;;;;;;;;;;5093563;28;20098;-38
2022/03/20 11:18:41;;;;;;;10.68;5.40;;;;;;;;;;5093521;28;20044;-38
2022/03/20 11:21:07;;;;;;;7.43;4.93;;;;;;;;;;5093650;28;20466;-37
2022/03/20 11:23:33;;;;;;;7.88;3.78;;;;;;;;;;5093415;28;20536;-39
2022/03/20 11:26:02;;;;;;;7.30;3.63;;;;;;;;;;5092279;28;20019;-38
2022/03/20 11:28:30;;;;;;;8.65;5.40;;;;;;;;;;5093394;28;20722;-38
2022/03/20 11:30:57;;;;;;;8.57;3.42;;;;;;;;;;5093615;28;20016;-38
2022/03/20 11:33:24;;;;;;;7.35;5.63;;;;;;;;;;5093454;28;20043;-38
2022/03/20 11:35:50;;;;;;;11.32;5.20;;;;;;;;;;5092107;28;20024;-38
2022/03/20 11:38:16;;;;;;;9.60;5.07;;;;;;;;;;5093447;28;20436;-38
2022/03/20 11:41:01;;;;;;;8.50;4.25;;;;;;;;;;5093171;28;20016;-38
2022/03/20 11:43:27;;;;;;;8.32;5.03;;;;;;;;;;5091656;28;20119;-38
2022/03/20 11:46:11;;;;;;;8.60;4.55;;;;;;;;;;5092941;28;20145;-38
2022/03/20 11:48:37;;;;;;;8.13;4.55;;;;;;;;;;5092929;28;20039;-38
2022/03/20 11:51:02;;;;;;;11.55;4.60;;;;;;;;;;5092819;28;20040;-38
2022/03/20 11:53:28;;;;;;;8.07;4.45;;;;;;;;;;5092804;28;20067;-38
2022/03/20 11:55:54;;;;;;;8.30;4.75;;;;;;;;;;5091580;28;20067;-38
2022/03/20 11:58:24;;;;;;;9.32;4.82;;;;;;;;;;5093057;28;20075;-38
2022/03/20 12:01:02;;;;;;;5.65;3.90;;;;;;;;;;5092864;28;20089;-38
2022/03/20 12:03:38;;;;;;;7.32;4.10;;;;;;;;;;5092776;28;20032;-38
2022/03/20 12:06:19;;;;;;;7.55;4.22;;;;;;;;;;5092627;28;20382;-38
2022/03/20 12:09:03;;;;;;;10.10;4.75;;;;;;;;;;5092631;28;20028;-38
2022/03/20 12:11:34;;;;;;;7.10;3.45;;;;;;;;;;5092545;28;20036;-38
2022/03/20 12:14:19;;;;;;;8.07;4.07;;;;;;;;;;5092333;28;20114;-38
2022/03/20 12:16:46;;;;;;;11.20;5.18;;;;;;;;;;5092680;28;20055;-39
2022/03/20 12:19:13;;;;;;;5.70;3.67;;;;;;;;;;5092673;28;20110;-38
2022/03/20 12:21:54;;;;;;;5.65;3.97;;;;;;;;;;5091035;28;20035;-38
2022/03/20 12:24:39;;;;;;;6.65;3.95;;;;;;;;;;5092602;28;20038;-38
2022/03/20 12:27:23;;;;;;;5.93;3.45;;;;;;;;;;5092272;28;20113;-38
2022/03/20 12:29:54;;;;;;;7.25;4.35;;;;;;;;;;5092150;28;20023;-38
2022/03/20 12:32:22;;;;;;;7.93;3.30;;;;;;;;;;5092176;28;20035;-38
2022/03/20 12:34:57;;;;;;;7.55;3.88;;;;;;;;;;5091886;28;20036;-38
2022/03/20 12:37:33;;;;;;;10.32;4.07;;;;;;;;;;5092397;28;20039;-38
2022/03/20 12:40:13;;;;;;;8.40;3.55;;;;;;;;;;5092377;28;20477;-41
2022/03/20 12:42:40;;;;;;;7.03;4.43;;;;;;;;;;5091900;28;20031;-38
2022/03/20 12:45:08;;;;;;;8.32;4.22;;;;;;;;;;5091988;28;20020;-38
2022/03/20 12:47:34;;;;;;;7.95;3.20;;;;;;;;;;5091917;28;20374;-38
2022/03/20 12:50:07;;;;;;;8.13;3.63;;;;;;;;;;5091799;28;20161;-38
2022/03/20 12:52:34;;;;;;;9.98;4.65;;;;;;;;;;5090245;28;20069;-38
2022/03/20 12:55:02;;;;;;;7.68;4.22;;;;;;;;;;5091841;28;20044;-38
2022/03/20 12:57:41;;;;;;;4.75;3.80;;;;;;;;;;5091551;28;20055;-38
2022/03/20 13:00:08;;;;;;;7.43;3.75;;;;;;;;;;5091855;28;20043;-38
2022/03/20 13:02:34;;;;;;;5.45;3.45;;;;;;;;;;5091646;28;20028;-38
2022/03/20 13:05:10;;;;;;;6.75;4.68;;;;;;;;;;5091672;28;20036;-38
2022/03/20 13:07:38;;;;;;;9.13;4.82;;;;;;;;;;5091858;28;20024;-38
2022/03/20 13:10:03;;;;;;;5.72;3.65;;;;;;;;;;5091651;28;20016;-38
2022/03/20 13:12:47;;;;;;;9.80;3.83;;;;;;;;;;5091503;28;20039;-39
2022/03/20 13:15:20;;;;;;;7.07;3.85;;;;;;;;;;5091567;28;20036;-38
2022/03/20 13:17:46;;;;;;;8.32;4.85;;;;;;;;;;5091715;28;20024;-38
2022/03/20 13:20:16;;;;;;;6.70;3.33;;;;;;;;;;5091813;28;20032;-38
2022/03/20 13:22:42;;;;;;;9.65;4.35;;;;;;;;;;5091754;28;20380;-38
2022/03/20 13:25:18;;;;;;;5.35;3.80;;;;;;;;;;5091376;28;20496;-38
2022/03/20 13:27:47;;;;;;;10.98;3.70;;;;;;;;;;5091666;28;20032;-38
2022/03/20 13:30:14;;;;;;;6.28;4.43;;;;;;;;;;5091512;28;20032;-38
2022/03/20 13:32:41;;;;;;;9.27;5.70;;;;;;;;;;5091535;28;20090;-38
2022/03/20 13:35:07;;;;;;;5.28;3.42;;;;;;;;;;5091364;28;20055;-38
2022/03/20 13:37:33;;;;;;;8.55;4.68;;;;;;;;;;5092901;28;20477;-38
2022/03/20 13:39:59;;;;;;;6.90;4.00;;;;;;;;;;5095731;28;20031;-38
2022/03/20 13:42:29;;;;;;;7.82;4.35;;;;;;;;;;5095790;28;20461;-38
2022/03/20 13:44:56;;;;;;;5.95;3.70;;;;;;;;;;5095326;28;20062;-37
2022/03/20 13:47:25;;;;;;;7.60;4.45;;;;;;;;;;5095387;28;20115;-38
2022/03/20 13:49:55;;;;;;;6.10;4.13;;;;;;;;;;5095381;28;20510;-37
2022/03/20 13:55:01;;;;;;;9.80;4.13;;;;;;;;;;5095122;28;20063;-38
2022/03/20 13:57:30;;;;;;;6.35;3.58;;;;;;;;;;5095152;28;20024;-38
2022/03/20 13:59:57;;;;;;;8.02;4.95;;;;;;;;;;5095180;28;20019;-38
2022/03/20 14:02:24;;;;;;;4.47;3.40;;;;;;;;;;5095144;28;20502;-38
2022/03/20 14:04:52;;;;;;;5.55;3.67;;;;;;;;;;5094982;28;20081;-38
2022/03/20 14:07:21;;;;;;;4.95;3.45;;;;;;;;;;5095226;28;20024;-38
2022/03/20 14:09:48;;;;;;;4.97;3.25;;;;;;;;;;5094968;28;20161;-38
2022/03/20 14:12:21;;;;;;;5.90;3.88;;;;;;;;;;5094974;28;20072;-38
2022/03/20 14:14:47;;;;;;;8.93;3.35;;;;;;;;;;5094587;28;20493;-38
2022/03/20 14:17:13;;;;;;;11.40;2.78;;;;;;;;;;5094787;28;20099;-38
2022/03/20 14:19:48;;;;;;;6.22;3.72;;;;;;;;;;5094729;28;20028;-38
2022/03/20 14:22:14;;;;;;;6.03;3.95;;;;;;;;;;5094809;28;20032;-38
2022/03/20 14:24:52;;;;;;;6.05;3.45;;;;;;;;;;5094575;28;20020;-38
2022/03/20 14:27:26;;;;;;;7.20;3.95;;;;;;;;;;5094718;28;20031;-38
2022/03/20 14:41:20;;;;;;;6.95;3.60;;;;;;;;;;5093352;28;20043;-38
2022/03/20 14:43:46;;;;;;;6.45;4.43;;;;;;;;;;5094244;28;20058;-38
2022/03/20 14:46:12;;;;;;;7.22;4.15;;;;;;;;;;5094198;28;20043;-37
2022/03/20 14:48:38;;;;;;;8.23;4.32;;;;;;;;;;5092992;28;20088;-38
2022/03/20 14:51:04;;;;;;;9.80;4.97;;;;;;;;;;5094098;28;20052;-38
2022/03/20 14:53:32;;;;;;;5.45;3.35;;;;;;;;;;5094030;28;20117;-38
2022/03/20 14:55:58;;;;;;;4.25;3.25;;;;;;;;;;5094091;28;20012;-38
2022/03/20 14:58:24;;;;;;;5.75;3.70;;;;;;;;;;5094036;28;20027;-38
2022/03/20 15:00:49;;;;;;;6.70;4.10;;;;;;;;;;5094184;28;20012;-38
2022/03/20 15:03:15;;;;;;;8.38;5.10;;;;;;;;;;5094147;28;20028;-38
2022/03/20 15:05:40;;;;;;;8.85;3.63;;;;;;;;;;5093717;28;20099;-38
2022/03/20 15:13:33;;;;;;;5.15;3.45;;;;;;;;;;5093619;28;20543;-38
2022/03/20 15:15:59;;;;;;;7.00;4.00;;;;;;;;;;5093709;28;20024;-38
2022/03/20 15:18:26;;;;;;;4.93;3.03;;;;;;;;;;5093686;28;20385;-38
2022/03/20 15:20:54;;;;;;;9.93;3.90;;;;;;;;;;5093772;28;20450;-38
2022/03/20 15:23:20;;;;;;;10.43;3.63;;;;;;;;;;5092357;28;20456;-38
2022/03/20 15:25:46;;;;;;;10.00;4.32;;;;;;;;;;5093357;28;20047;-38
2022/03/20 15:28:15;;;;;;;13.85;4.05;;;;;;;;;;5093749;28;20028;-39